Observations for TIREE ISLAND, United Kingdom (EGPU)

EGPU 201650Z 25022KT 9999 VCSH SCT020 BKN049 11/09 Q1018
EGPU 201620Z 25018KT 9999 FEW039 SCT049 12/07 Q1018 
EGPU 201550Z 26018KT 220V280 9999 SCT029 12/07 Q1018
EGPU 201520Z 26018KT 9999 SCT033 12/07 Q1018
EGPU 201450Z 26017KT 230V300 9999 SCT028 13/08 Q1018
EGPU 201420Z 26019KT 9999 FEW028 13/08 Q1018
EGPU 201350Z 26015KT 9999 FEW028 13/09 Q1018
EGPU 201320Z 26012KT 9999 FEW022 SCT035 BKN045 12/10 Q1018  
EGPU 201250Z 26012KT 9999 VCSH BKN042 11/09 Q1018   
EGPU 201220Z 27014KT 230V300 9999 -SHRA SCT022 SCT049 13/08 Q1018   
EGPU 201150Z AUTO 26014KT 9999 NCD 12/07 Q1018  
EGPU 201120Z 28011KT 9999 FEW024 SCT035 12/07 Q1018 
EGPU 201050Z 30021KT 9999 -SHRA FEW033 SCT043 11/07 Q1018   
EGPU 201020Z 30015KT 270V330 9999 FEW030 13/07 Q1017
EGPU 200950Z 30014KT 270V330 9999 FEW021 13/08 Q1017
EGPU 200920Z 32014KT 290V350 9999 FEW030 13/08 Q1017
EGPU 200850Z 31015KT 280V340 9999 FEW028 13/08 Q1016
EGPU 200820Z 32015KT 290V350 9999 FEW028 12/07 Q1016
EGPU 200750Z 32015KT 9999 SCT049 12/08 Q1016
EGPU 200720Z AUTO 33015KT 290V350 9999 NCD 12/08 Q1015  
EGPU 200650Z AUTO 32014KT 9999 NCD 11/08 Q1015  
EGPU 200620Z AUTO 33014KT 300V360 9999 FEW049/// 11/09 Q1014
EGPU 200550Z AUTO 34014KT 9999 FEW017/// 11/08 Q1014
EGPU 200520Z AUTO 34014KT 9999 FEW015/// 10/08 Q1013 RERA   
EGPU 200450Z AUTO 36016KT 9999 FEW013/// BKN021/// 10/08 Q1012 RERA 
EGPU 200420Z AUTO 35017KT 9999 SCT030/// 10/08 Q1012 RERA   
EGPU 200350Z AUTO 36016KT 9999 NCD 09/07 Q1012 RERA 
EGPU 200320Z AUTO 35016KT 330V140 9999 -RADZ FEW021/// 09/08 Q1012  
EGPU 200250Z AUTO VRB17KT 9999 RA FEW020/// BKN048/// 09/08 Q1011   
EGPU 200220Z AUTO 36018KT 330V130 9999 -RA FEW010/// BKN018/// BKN045/// 09/08 Q1011
EGPU 200150Z AUTO 03009KT 350V050 9000 RA SCT010/// BKN044/// 09/08 Q1011   
EGPU 200120Z AUTO 03011KT 5000 -DZ FEW012/// BKN018/// 09/08 Q1011  
EGPU 200050Z AUTO 02013KT 5000 BR FEW009/// BKN022/// 09/08 Q1011 RERA  
EGPU 200020Z AUTO 04012KT 7000 -RADZ BKN021/// 09/08 Q1011  
EGPU 192350Z AUTO 04010KT 9999 BKN021/// 09/08 Q1011
EGPU 192320Z AUTO 04011KT 9999 FEW027/// BKN048/// 09/08 Q1011 RERA 
EGPU 192250Z AUTO 05010KT 9999 FEW021/// 09/08 Q1012 RERA   
EGPU 192220Z AUTO 05009KT 6000 BKN022/// 09/08 Q1012 RERA   
EGPU 192150Z AUTO 05009KT 9999 FEW021/// 09/08 Q1012 RERA   
EGPU 192120Z AUTO 05008KT 9999 RA FEW009/// SCT016/// BKN042/// 09/08 Q1013 
EGPU 192050Z AUTO 06006KT 9999 -RA BKN024/// 09/08 Q1013
EGPU 192020Z AUTO 07008KT 9999 RA FEW027/// 09/08 Q1013 
EGPU 191950Z AUTO 09007KT 9999 -RADZ SCT027/// 09/08 Q1014  
EGPU 191920Z AUTO 10007KT 9999 -RADZ BKN025/// SCT038/// 09/08 Q1014
EGPU 191850Z AUTO VRB02KT 9999 RA FEW009/// BKN037/// 10/08 Q1015   
EGPU 191820Z AUTO VRB02KT 9999 RA SCT016/// BKN033/// 09/07 Q1015   
EGPU 191750Z AUTO 04002KT 9999 RA BKN017/// BKN023/// 09/06 Q1015   
EGPU 191720Z 11003KT 9000 RA SCT027 SCT035 BKN044 10/06 Q1015   
EGPU 191650Z VRB01KT 9999 SCT039 BKN048 10/05 Q1015 
EGPU 191620Z 20005KT 140V260 9000 -RA BKN045 10/06 Q1016